sensor_id;sensor_type;location;lat;lon;timestamp;temperature;humidity
4526;DHT22;2275;52.208;8.804;2022-08-03T00:00:58;21.10;99.90
4526;DHT22;2275;52.208;8.804;2022-08-03T00:03:25;21.10;99.90
4526;DHT22;2275;52.208;8.804;2022-08-03T00:05:52;21.10;99.90
4526;DHT22;2275;52.208;8.804;2022-08-03T00:08:19;21.10;99.90
4526;DHT22;2275;52.208;8.804;2022-08-03T00:10:47;21.00;99.90
4526;DHT22;2275;52.208;8.804;2022-08-03T00:13:14;21.00;99.90
4526;DHT22;2275;52.208;8.804;2022-08-03T00:15:41;20.80;99.90
4526;DHT22;2275;52.208;8.804;2022-08-03T00:18:09;20.70;99.90
4526;DHT22;2275;52.208;8.804;2022-08-03T00:20:37;20.60;99.90
4526;DHT22;2275;52.208;8.804;2022-08-03T00:23:04;20.60;99.90
4526;DHT22;2275;52.208;8.804;2022-08-03T00:25:32;20.60;99.90
4526;DHT22;2275;52.208;8.804;2022-08-03T00:27:59;20.50;99.90
4526;DHT22;2275;52.208;8.804;2022-08-03T00:30:26;20.50;99.90
4526;DHT22;2275;52.208;8.804;2022-08-03T00:32:53;20.50;99.90
4526;DHT22;2275;52.208;8.804;2022-08-03T00:35:20;20.40;99.90
4526;DHT22;2275;52.208;8.804;2022-08-03T00:37:47;20.40;99.90
4526;DHT22;2275;52.208;8.804;2022-08-03T00:40:14;20.30;99.90
4526;DHT22;2275;52.208;8.804;2022-08-03T00:42:52;20.30;99.90
4526;DHT22;2275;52.208;8.804;2022-08-03T00:45:20;20.40;99.90
4526;DHT22;2275;52.208;8.804;2022-08-03T00:47:47;20.40;99.90
4526;DHT22;2275;52.208;8.804;2022-08-03T00:50:15;20.30;99.90
4526;DHT22;2275;52.208;8.804;2022-08-03T00:52:42;20.30;99.90
4526;DHT22;2275;52.208;8.804;2022-08-03T00:55:10;20.20;99.90
4526;DHT22;2275;52.208;8.804;2022-08-03T00:57:37;20.10;99.90
4526;DHT22;2275;52.208;8.804;2022-08-03T01:00:07;20.00;99.90
4526;DHT22;2275;52.208;8.804;2022-08-03T01:02:34;19.90;99.90
4526;DHT22;2275;52.208;8.804;2022-08-03T01:05:02;20.00;99.90
4526;DHT22;2275;52.208;8.804;2022-08-03T01:14:10;20.00;99.90
4526;DHT22;2275;52.208;8.804;2022-08-03T01:17:01;20.00;99.90
4526;DHT22;2275;52.208;8.804;2022-08-03T01:18:40;20.00;99.90
4526;DHT22;2275;52.208;8.804;2022-08-03T01:21:08;19.90;99.90
4526;DHT22;2275;52.208;8.804;2022-08-03T01:24:01;19.90;99.90
4526;DHT22;2275;52.208;8.804;2022-08-03T01:26:47;19.80;99.90
4526;DHT22;2275;52.208;8.804;2022-08-03T01:31:52;19.80;99.90
4526;DHT22;2275;52.208;8.804;2022-08-03T01:34:17;19.70;99.90
4526;DHT22;2275;52.208;8.804;2022-08-03T01:36:47;19.60;99.90
4526;DHT22;2275;52.208;8.804;2022-08-03T01:39:11;19.60;99.90
4526;DHT22;2275;52.208;8.804;2022-08-03T01:41:41;19.60;99.90
4526;DHT22;2275;52.208;8.804;2022-08-03T01:44:09;19.60;99.90
4526;DHT22;2275;52.208;8.804;2022-08-03T01:46:37;19.50;99.90
4526;DHT22;2275;52.208;8.804;2022-08-03T01:49:05;19.50;99.90
4526;DHT22;2275;52.208;8.804;2022-08-03T01:51:31;19.50;99.90
4526;DHT22;2275;52.208;8.804;2022-08-03T01:53:58;19.50;99.90
4526;DHT22;2275;52.208;8.804;2022-08-03T01:56:26;19.40;99.90
4526;DHT22;2275;52.208;8.804;2022-08-03T01:58:54;19.40;99.90
4526;DHT22;2275;52.208;8.804;2022-08-03T02:01:21;19.40;99.90
4526;DHT22;2275;52.208;8.804;2022-08-03T02:03:48;19.40;99.90
4526;DHT22;2275;52.208;8.804;2022-08-03T02:06:15;19.40;99.90
4526;DHT22;2275;52.208;8.804;2022-08-03T02:08:43;19.30;99.90
4526;DHT22;2275;52.208;8.804;2022-08-03T02:11:10;19.30;99.90
4526;DHT22;2275;52.208;8.804;2022-08-03T02:13:37;19.20;99.90
4526;DHT22;2275;52.208;8.804;2022-08-03T02:16:05;19.20;99.90
4526;DHT22;2275;52.208;8.804;2022-08-03T02:18:32;19.20;99.90
4526;DHT22;2275;52.208;8.804;2022-08-03T02:21:02;19.20;99.90
4526;DHT22;2275;52.208;8.804;2022-08-03T02:23:29;19.10;99.90
4526;DHT22;2275;52.208;8.804;2022-08-03T02:25:57;19.10;99.90
4526;DHT22;2275;52.208;8.804;2022-08-03T02:28:29;19.00;99.90
4526;DHT22;2275;52.208;8.804;2022-08-03T02:30:56;19.00;99.90
4526;DHT22;2275;52.208;8.804;2022-08-03T02:33:26;19.00;99.90
4526;DHT22;2275;52.208;8.804;2022-08-03T02:35:53;18.90;99.90
4526;DHT22;2275;52.208;8.804;2022-08-03T02:38:22;18.90;99.90
4526;DHT22;2275;52.208;8.804;2022-08-03T02:40:48;18.90;99.90
4526;DHT22;2275;52.208;8.804;2022-08-03T02:43:16;18.90;99.90
4526;DHT22;2275;52.208;8.804;2022-08-03T02:45:43;18.90;99.90
4526;DHT22;2275;52.208;8.804;2022-08-03T02:48:10;18.90;99.90
4526;DHT22;2275;52.208;8.804;2022-08-03T02:50:37;19.00;99.90
4526;DHT22;2275;52.208;8.804;2022-08-03T02:53:04;18.90;99.90
4526;DHT22;2275;52.208;8.804;2022-08-03T02:55:32;18.90;99.90
4526;DHT22;2275;52.208;8.804;2022-08-03T02:57:59;18.90;99.90
4526;DHT22;2275;52.208;8.804;2022-08-03T03:00:28;18.90;99.90
4526;DHT22;2275;52.208;8.804;2022-08-03T03:02:56;18.80;99.90
4526;DHT22;2275;52.208;8.804;2022-08-03T03:05:23;18.80;99.90
4526;DHT22;2275;52.208;8.804;2022-08-03T03:07:50;18.80;99.90
4526;DHT22;2275;52.208;8.804;2022-08-03T03:10:20;18.70;99.90
4526;DHT22;2275;52.208;8.804;2022-08-03T03:12:48;18.70;99.90
4526;DHT22;2275;52.208;8.804;2022-08-03T03:15:15;18.70;99.90
4526;DHT22;2275;52.208;8.804;2022-08-03T03:17:42;18.70;99.90
4526;DHT22;2275;52.208;8.804;2022-08-03T03:20:13;18.70;99.90
4526;DHT22;2275;52.208;8.804;2022-08-03T03:22:40;18.70;99.90
4526;DHT22;2275;52.208;8.804;2022-08-03T03:25:08;18.70;99.90
4526;DHT22;2275;52.208;8.804;2022-08-03T03:27:36;18.70;99.90
4526;DHT22;2275;52.208;8.804;2022-08-03T03:30:03;18.70;99.90
4526;DHT22;2275;52.208;8.804;2022-08-03T03:32:31;18.70;99.90
4526;DHT22;2275;52.208;8.804;2022-08-03T03:34:58;18.70;99.90
4526;DHT22;2275;52.208;8.804;2022-08-03T03:37:26;18.70;99.90
4526;DHT22;2275;52.208;8.804;2022-08-03T03:39:53;18.70;99.90
4526;DHT22;2275;52.208;8.804;2022-08-03T03:42:20;18.60;99.90
4526;DHT22;2275;52.208;8.804;2022-08-03T03:44:47;18.60;99.90
4526;DHT22;2275;52.208;8.804;2022-08-03T03:47:15;18.60;99.90
4526;DHT22;2275;52.208;8.804;2022-08-03T03:49:42;18.60;99.90
4526;DHT22;2275;52.208;8.804;2022-08-03T03:52:10;18.50;99.90
4526;DHT22;2275;52.208;8.804;2022-08-03T03:54:41;18.50;99.90
4526;DHT22;2275;52.208;8.804;2022-08-03T03:57:09;18.40;99.90
4526;DHT22;2275;52.208;8.804;2022-08-03T03:59:37;18.30;99.90
4526;DHT22;2275;52.208;8.804;2022-08-03T04:02:05;18.30;99.90
4526;DHT22;2275;52.208;8.804;2022-08-03T04:04:32;18.40;99.90
4526;DHT22;2275;52.208;8.804;2022-08-03T04:07:05;18.40;99.90
4526;DHT22;2275;52.208;8.804;2022-08-03T04:09:38;18.30;99.90
4526;DHT22;2275;52.208;8.804;2022-08-03T04:12:12;18.40;99.90
4526;DHT22;2275;52.208;8.804;2022-08-03T04:14:40;18.40;99.90
4526;DHT22;2275;52.208;8.804;2022-08-03T04:17:08;18.40;99.90
4526;DHT22;2275;52.208;8.804;2022-08-03T04:19:39;18.50;99.90
4526;DHT22;2275;52.208;8.804;2022-08-03T04:22:06;18.50;99.90
4526;DHT22;2275;52.208;8.804;2022-08-03T04:24:34;18.40;99.90
4526;DHT22;2275;52.208;8.804;2022-08-03T04:27:02;18.50;99.90
4526;DHT22;2275;52.208;8.804;2022-08-03T04:29:29;18.50;99.90
4526;DHT22;2275;52.208;8.804;2022-08-03T04:31:56;18.50;99.90
4526;DHT22;2275;52.208;8.804;2022-08-03T04:34:24;18.50;99.90
4526;DHT22;2275;52.208;8.804;2022-08-03T04:36:52;18.50;99.90
4526;DHT22;2275;52.208;8.804;2022-08-03T04:39:22;18.50;99.90
4526;DHT22;2275;52.208;8.804;2022-08-03T04:41:46;18.60;99.90
4526;DHT22;2275;52.208;8.804;2022-08-03T04:44:13;18.60;99.90
4526;DHT22;2275;52.208;8.804;2022-08-03T04:46:42;18.60;99.90
4526;DHT22;2275;52.208;8.804;2022-08-03T04:49:13;18.60;99.90
4526;DHT22;2275;52.208;8.804;2022-08-03T04:54:49;18.70;99.90
4526;DHT22;2275;52.208;8.804;2022-08-03T04:57:17;18.80;99.90
4526;DHT22;2275;52.208;8.804;2022-08-03T04:59:44;18.80;99.90
4526;DHT22;2275;52.208;8.804;2022-08-03T05:02:12;18.90;99.90
4526;DHT22;2275;52.208;8.804;2022-08-03T05:04:39;19.00;99.90
4526;DHT22;2275;52.208;8.804;2022-08-03T05:07:11;19.00;99.90
4526;DHT22;2275;52.208;8.804;2022-08-03T05:09:39;19.00;99.90
4526;DHT22;2275;52.208;8.804;2022-08-03T05:12:07;19.00;99.90
4526;DHT22;2275;52.208;8.804;2022-08-03T05:14:34;19.10;99.90
4526;DHT22;2275;52.208;8.804;2022-08-03T05:17:01;19.20;99.90
4526;DHT22;2275;52.208;8.804;2022-08-03T05:19:28;19.30;99.90
4526;DHT22;2275;52.208;8.804;2022-08-03T05:21:55;19.30;99.90
4526;DHT22;2275;52.208;8.804;2022-08-03T05:24:23;19.40;99.90
4526;DHT22;2275;52.208;8.804;2022-08-03T05:26:50;19.40;99.90
4526;DHT22;2275;52.208;8.804;2022-08-03T05:29:18;19.50;99.90
4526;DHT22;2275;52.208;8.804;2022-08-03T05:31:45;19.50;99.90
4526;DHT22;2275;52.208;8.804;2022-08-03T05:34:12;19.60;99.90
4526;DHT22;2275;52.208;8.804;2022-08-03T05:36:39;19.60;99.90
4526;DHT22;2275;52.208;8.804;2022-08-03T05:39:06;19.70;99.90
4526;DHT22;2275;52.208;8.804;2022-08-03T05:41:33;19.80;99.90
4526;DHT22;2275;52.208;8.804;2022-08-03T05:44:00;19.90;99.90
4526;DHT22;2275;52.208;8.804;2022-08-03T05:46:27;20.00;99.90
4526;DHT22;2275;52.208;8.804;2022-08-03T05:48:54;20.00;99.90
4526;DHT22;2275;52.208;8.804;2022-08-03T05:51:22;20.10;99.90
4526;DHT22;2275;52.208;8.804;2022-08-03T05:53:49;20.20;99.90
4526;DHT22;2275;52.208;8.804;2022-08-03T05:56:20;20.30;99.90
4526;DHT22;2275;52.208;8.804;2022-08-03T05:58:45;20.40;99.90
4526;DHT22;2275;52.208;8.804;2022-08-03T06:01:13;20.70;99.90
4526;DHT22;2275;52.208;8.804;2022-08-03T06:03:41;20.60;99.90
4526;DHT22;2275;52.208;8.804;2022-08-03T06:06:08;20.70;99.90
4526;DHT22;2275;52.208;8.804;2022-08-03T06:08:35;20.80;99.90
4526;DHT22;2275;52.208;8.804;2022-08-03T06:11:03;20.90;99.90
4526;DHT22;2275;52.208;8.804;2022-08-03T06:13:29;21.00;99.90
4526;DHT22;2275;52.208;8.804;2022-08-03T06:15:57;21.10;99.90
4526;DHT22;2275;52.208;8.804;2022-08-03T06:18:24;21.30;99.90
4526;DHT22;2275;52.208;8.804;2022-08-03T06:20:52;21.40;99.90
4526;DHT22;2275;52.208;8.804;2022-08-03T06:23:19;21.50;99.90
4526;DHT22;2275;52.208;8.804;2022-08-03T06:25:46;21.50;99.90
4526;DHT22;2275;52.208;8.804;2022-08-03T06:28:24;21.50;99.90
4526;DHT22;2275;52.208;8.804;2022-08-03T06:30:55;21.60;99.90
4526;DHT22;2275;52.208;8.804;2022-08-03T06:33:22;21.70;99.90
4526;DHT22;2275;52.208;8.804;2022-08-03T06:35:49;21.80;99.90
4526;DHT22;2275;52.208;8.804;2022-08-03T06:38:15;21.90;99.90
4526;DHT22;2275;52.208;8.804;2022-08-03T06:40:42;22.00;99.90
4526;DHT22;2275;52.208;8.804;2022-08-03T06:43:10;22.10;99.90
4526;DHT22;2275;52.208;8.804;2022-08-03T06:45:36;22.10;99.90
4526;DHT22;2275;52.208;8.804;2022-08-03T06:48:05;22.20;99.90
4526;DHT22;2275;52.208;8.804;2022-08-03T06:50:33;22.20;99.90
4526;DHT22;2275;52.208;8.804;2022-08-03T06:55:55;22.40;99.90
4526;DHT22;2275;52.208;8.804;2022-08-03T06:58:22;22.50;99.90
4526;DHT22;2275;52.208;8.804;2022-08-03T07:00:49;22.50;99.90
4526;DHT22;2275;52.208;8.804;2022-08-03T07:03:22;22.60;99.90
4526;DHT22;2275;52.208;8.804;2022-08-03T07:05:49;22.80;99.90
4526;DHT22;2275;52.208;8.804;2022-08-03T07:08:17;22.90;99.90
4526;DHT22;2275;52.208;8.804;2022-08-03T07:10:43;23.10;99.90
4526;DHT22;2275;52.208;8.804;2022-08-03T07:13:10;23.20;99.90
4526;DHT22;2275;52.208;8.804;2022-08-03T07:15:38;23.40;99.90
4526;DHT22;2275;52.208;8.804;2022-08-03T07:18:05;23.60;99.90
4526;DHT22;2275;52.208;8.804;2022-08-03T07:20:32;23.70;99.90
4526;DHT22;2275;52.208;8.804;2022-08-03T07:22:59;23.80;99.90
4526;DHT22;2275;52.208;8.804;2022-08-03T07:25:26;23.90;99.90
4526;DHT22;2275;52.208;8.804;2022-08-03T07:27:54;24.00;99.90
4526;DHT22;2275;52.208;8.804;2022-08-03T07:30:21;24.10;99.90
4526;DHT22;2275;52.208;8.804;2022-08-03T07:32:48;24.20;99.90
4526;DHT22;2275;52.208;8.804;2022-08-03T07:35:15;24.20;99.90
4526;DHT22;2275;52.208;8.804;2022-08-03T07:37:42;24.20;99.90
4526;DHT22;2275;52.208;8.804;2022-08-03T07:40:10;24.30;99.90
4526;DHT22;2275;52.208;8.804;2022-08-03T07:42:37;24.30;99.90
4526;DHT22;2275;52.208;8.804;2022-08-03T07:45:04;24.30;99.90
4526;DHT22;2275;52.208;8.804;2022-08-03T07:47:32;24.40;99.90
4526;DHT22;2275;52.208;8.804;2022-08-03T07:49:59;24.50;99.90
4526;DHT22;2275;52.208;8.804;2022-08-03T07:52:26;24.60;99.90
4526;DHT22;2275;52.208;8.804;2022-08-03T07:55:02;24.70;99.90
4526;DHT22;2275;52.208;8.804;2022-08-03T07:57:31;24.80;99.90
4526;DHT22;2275;52.208;8.804;2022-08-03T07:59:59;24.90;99.90
4526;DHT22;2275;52.208;8.804;2022-08-03T08:02:26;25.00;99.90
4526;DHT22;2275;52.208;8.804;2022-08-03T08:04:53;25.10;99.90
4526;DHT22;2275;52.208;8.804;2022-08-03T08:07:21;25.20;99.90
4526;DHT22;2275;52.208;8.804;2022-08-03T08:09:48;25.30;99.90
4526;DHT22;2275;52.208;8.804;2022-08-03T08:12:15;25.50;99.90
4526;DHT22;2275;52.208;8.804;2022-08-03T08:14:42;25.60;99.90
4526;DHT22;2275;52.208;8.804;2022-08-03T08:17:10;25.70;99.90
4526;DHT22;2275;52.208;8.804;2022-08-03T08:19:37;25.80;99.90
4526;DHT22;2275;52.208;8.804;2022-08-03T08:22:04;25.90;99.90
4526;DHT22;2275;52.208;8.804;2022-08-03T08:24:31;26.00;99.90
4526;DHT22;2275;52.208;8.804;2022-08-03T08:26:58;26.10;99.90
4526;DHT22;2275;52.208;8.804;2022-08-03T08:29:25;26.10;99.90
4526;DHT22;2275;52.208;8.804;2022-08-03T08:31:52;26.30;99.90
4526;DHT22;2275;52.208;8.804;2022-08-03T08:34:19;26.30;99.90
4526;DHT22;2275;52.208;8.804;2022-08-03T08:36:46;26.40;99.90
4526;DHT22;2275;52.208;8.804;2022-08-03T08:39:13;26.50;99.90
4526;DHT22;2275;52.208;8.804;2022-08-03T08:41:40;26.60;99.90
4526;DHT22;2275;52.208;8.804;2022-08-03T08:44:07;26.70;99.90
4526;DHT22;2275;52.208;8.804;2022-08-03T08:46:34;26.70;99.90
4526;DHT22;2275;52.208;8.804;2022-08-03T08:49:04;26.80;99.90
4526;DHT22;2275;52.208;8.804;2022-08-03T08:51:33;26.80;99.90
4526;DHT22;2275;52.208;8.804;2022-08-03T08:54:01;26.90;99.90
4526;DHT22;2275;52.208;8.804;2022-08-03T08:56:28;26.90;99.90
4526;DHT22;2275;52.208;8.804;2022-08-03T08:58:56;27.00;99.90
4526;DHT22;2275;52.208;8.804;2022-08-03T09:01:21;27.10;99.90
4526;DHT22;2275;52.208;8.804;2022-08-03T09:03:49;27.30;99.90
4526;DHT22;2275;52.208;8.804;2022-08-03T09:06:16;27.40;99.90
4526;DHT22;2275;52.208;8.804;2022-08-03T09:08:43;27.40;99.90
4526;DHT22;2275;52.208;8.804;2022-08-03T09:11:10;27.50;99.90
4526;DHT22;2275;52.208;8.804;2022-08-03T09:13:39;27.50;99.90
4526;DHT22;2275;52.208;8.804;2022-08-03T09:16:12;27.60;99.90
4526;DHT22;2275;52.208;8.804;2022-08-03T09:18:39;27.80;99.90
4526;DHT22;2275;52.208;8.804;2022-08-03T09:21:20;27.80;99.90
4526;DHT22;2275;52.208;8.804;2022-08-03T09:23:48;27.90;99.90
4526;DHT22;2275;52.208;8.804;2022-08-03T09:26:19;28.00;99.90
4526;DHT22;2275;52.208;8.804;2022-08-03T09:28:46;28.00;99.90
4526;DHT22;2275;52.208;8.804;2022-08-03T09:31:13;28.10;99.90
4526;DHT22;2275;52.208;8.804;2022-08-03T09:33:46;28.20;99.90
4526;DHT22;2275;52.208;8.804;2022-08-03T09:39:06;28.40;99.90
4526;DHT22;2275;52.208;8.804;2022-08-03T09:41:32;28.50;99.90
4526;DHT22;2275;52.208;8.804;2022-08-03T09:43:59;28.70;99.90
4526;DHT22;2275;52.208;8.804;2022-08-03T09:46:26;28.90;99.90
4526;DHT22;2275;52.208;8.804;2022-08-03T09:48:54;28.90;99.90
4526;DHT22;2275;52.208;8.804;2022-08-03T09:51:25;28.80;99.90
4526;DHT22;2275;52.208;8.804;2022-08-03T09:53:57;28.80;99.90
4526;DHT22;2275;52.208;8.804;2022-08-03T09:56:39;28.90;99.90
4526;DHT22;2275;52.208;8.804;2022-08-03T09:59:06;29.00;99.90
4526;DHT22;2275;52.208;8.804;2022-08-03T10:01:33;29.30;99.90
4526;DHT22;2275;52.208;8.804;2022-08-03T10:04:00;30.80;99.90
4526;DHT22;2275;52.208;8.804;2022-08-03T10:06:27;33.10;99.90
4526;DHT22;2275;52.208;8.804;2022-08-03T10:09:05;35.00;98.40
4526;DHT22;2275;52.208;8.804;2022-08-03T10:11:32;36.00;93.40
4526;DHT22;2275;52.208;8.804;2022-08-03T10:14:01;36.60;88.50
4526;DHT22;2275;52.208;8.804;2022-08-03T10:16:27;37.10;84.60
4526;DHT22;2275;52.208;8.804;2022-08-03T10:18:53;38.30;77.30
4526;DHT22;2275;52.208;8.804;2022-08-03T10:21:21;38.80;69.60
4526;DHT22;2275;52.208;8.804;2022-08-03T10:23:48;39.50;66.50
4526;DHT22;2275;52.208;8.804;2022-08-03T10:26:15;39.80;63.30
4526;DHT22;2275;52.208;8.804;2022-08-03T10:28:45;40.50;60.90
4526;DHT22;2275;52.208;8.804;2022-08-03T10:31:09;40.90;57.30
4526;DHT22;2275;52.208;8.804;2022-08-03T10:33:40;41.00;56.00
4526;DHT22;2275;52.208;8.804;2022-08-03T10:36:05;41.30;54.50
4526;DHT22;2275;52.208;8.804;2022-08-03T10:38:35;41.00;53.10
4526;DHT22;2275;52.208;8.804;2022-08-03T10:40:59;40.30;53.20
4526;DHT22;2275;52.208;8.804;2022-08-03T10:43:31;39.70;54.20
4526;DHT22;2275;52.208;8.804;2022-08-03T10:45:55;39.50;52.90
4526;DHT22;2275;52.208;8.804;2022-08-03T10:48:23;39.40;53.50
4526;DHT22;2275;52.208;8.804;2022-08-03T10:50:51;40.10;52.50
4526;DHT22;2275;52.208;8.804;2022-08-03T10:53:50;40.30;50.00
4526;DHT22;2275;52.208;8.804;2022-08-03T10:56:03;39.00;50.70
4526;DHT22;2275;52.208;8.804;2022-08-03T10:58:51;38.40;53.00
4526;DHT22;2275;52.208;8.804;2022-08-03T11:01:47;39.70;51.70
4526;DHT22;2275;52.208;8.804;2022-08-03T11:06:35;40.10;51.60
4526;DHT22;2275;52.208;8.804;2022-08-03T11:09:15;40.10;50.60
4526;DHT22;2275;52.208;8.804;2022-08-03T11:11:45;38.80;52.10
4526;DHT22;2275;52.208;8.804;2022-08-03T11:14:16;37.60;54.50
4526;DHT22;2275;52.208;8.804;2022-08-03T11:16:44;36.90;56.20
4526;DHT22;2275;52.208;8.804;2022-08-03T11:19:12;37.10;56.80
4526;DHT22;2275;52.208;8.804;2022-08-03T11:21:52;37.50;55.70
4526;DHT22;2275;52.208;8.804;2022-08-03T11:29:37;39.30;54.20
4526;DHT22;2275;52.208;8.804;2022-08-03T11:32:04;40.20;52.00
4526;DHT22;2275;52.208;8.804;2022-08-03T11:34:31;40.60;51.10
4526;DHT22;2275;52.208;8.804;2022-08-03T11:39:40;39.80;52.40
4526;DHT22;2275;52.208;8.804;2022-08-03T11:42:49;39.30;52.90
4526;DHT22;2275;52.208;8.804;2022-08-03T11:45:00;38.70;54.40
4526;DHT22;2275;52.208;8.804;2022-08-03T11:50:35;38.80;53.20
4526;DHT22;2275;52.208;8.804;2022-08-03T11:53:04;39.50;53.00
4526;DHT22;2275;52.208;8.804;2022-08-03T11:55:30;40.10;51.50
4526;DHT22;2275;52.208;8.804;2022-08-03T11:57:58;39.70;50.40
4526;DHT22;2275;52.208;8.804;2022-08-03T12:00:27;38.90;50.70
4526;DHT22;2275;52.208;8.804;2022-08-03T12:03:01;38.60;51.40
4526;DHT22;2275;52.208;8.804;2022-08-03T12:05:35;38.10;51.60
4526;DHT22;2275;52.208;8.804;2022-08-03T12:08:08;37.30;52.40
4526;DHT22;2275;52.208;8.804;2022-08-03T12:10:35;36.50;53.90
4526;DHT22;2275;52.208;8.804;2022-08-03T12:13:03;36.30;54.70
4526;DHT22;2275;52.208;8.804;2022-08-03T12:15:32;36.00;55.60
4526;DHT22;2275;52.208;8.804;2022-08-03T12:17:59;36.00;56.40
4526;DHT22;2275;52.208;8.804;2022-08-03T12:20:27;36.10;55.90
4526;DHT22;2275;52.208;8.804;2022-08-03T12:22:53;35.90;56.90
4526;DHT22;2275;52.208;8.804;2022-08-03T12:25:22;35.80;57.30
4526;DHT22;2275;52.208;8.804;2022-08-03T12:27:55;35.60;56.80
4526;DHT22;2275;52.208;8.804;2022-08-03T12:30:21;35.10;58.00
4526;DHT22;2275;52.208;8.804;2022-08-03T12:32:49;34.90;58.80
4526;DHT22;2275;52.208;8.804;2022-08-03T12:35:22;34.80;58.70
4526;DHT22;2275;52.208;8.804;2022-08-03T12:37:49;34.70;58.30
4526;DHT22;2275;52.208;8.804;2022-08-03T12:40:24;34.70;58.50
4526;DHT22;2275;52.208;8.804;2022-08-03T12:43:11;34.70;59.10
4526;DHT22;2275;52.208;8.804;2022-08-03T12:45:39;34.80;59.30
4526;DHT22;2275;52.208;8.804;2022-08-03T12:48:07;35.00;59.30
4526;DHT22;2275;52.208;8.804;2022-08-03T12:50:35;35.40;58.80
4526;DHT22;2275;52.208;8.804;2022-08-03T12:53:01;35.60;58.50
4526;DHT22;2275;52.208;8.804;2022-08-03T12:55:30;35.70;57.70
4526;DHT22;2275;52.208;8.804;2022-08-03T12:58:00;35.60;57.00
4526;DHT22;2275;52.208;8.804;2022-08-03T13:00:30;35.60;57.40
4526;DHT22;2275;52.208;8.804;2022-08-03T13:03:03;35.40;57.90
4526;DHT22;2275;52.208;8.804;2022-08-03T13:05:29;35.30;57.90
4526;DHT22;2275;52.208;8.804;2022-08-03T13:07:56;35.40;58.20
4526;DHT22;2275;52.208;8.804;2022-08-03T13:10:30;35.60;58.20
4526;DHT22;2275;52.208;8.804;2022-08-03T13:12:56;35.80;57.30
4526;DHT22;2275;52.208;8.804;2022-08-03T13:15:23;35.70;57.40
4526;DHT22;2275;52.208;8.804;2022-08-03T13:17:50;35.80;57.50
4526;DHT22;2275;52.208;8.804;2022-08-03T13:20:17;35.90;57.50
4526;DHT22;2275;52.208;8.804;2022-08-03T13:22:45;35.80;57.90
4526;DHT22;2275;52.208;8.804;2022-08-03T13:25:12;35.70;58.50
4526;DHT22;2275;52.208;8.804;2022-08-03T13:30:47;36.20;57.90
4526;DHT22;2275;52.208;8.804;2022-08-03T13:33:15;36.10;57.80
4526;DHT22;2275;52.208;8.804;2022-08-03T13:35:41;36.30;57.60
4526;DHT22;2275;52.208;8.804;2022-08-03T13:38:08;36.20;58.10
4526;DHT22;2275;52.208;8.804;2022-08-03T13:40:35;36.20;57.20
4526;DHT22;2275;52.208;8.804;2022-08-03T13:43:18;36.00;57.50
4526;DHT22;2275;52.208;8.804;2022-08-03T13:46:04;35.70;56.60
4526;DHT22;2275;52.208;8.804;2022-08-03T13:48:32;35.60;56.50
4526;DHT22;2275;52.208;8.804;2022-08-03T13:51:00;35.60;58.90
4526;DHT22;2275;52.208;8.804;2022-08-03T13:53:27;35.70;58.30
4526;DHT22;2275;52.208;8.804;2022-08-03T13:55:54;35.60;58.10
4526;DHT22;2275;52.208;8.804;2022-08-03T13:58:22;35.50;58.70
4526;DHT22;2275;52.208;8.804;2022-08-03T14:00:50;35.40;58.30
4526;DHT22;2275;52.208;8.804;2022-08-03T14:03:17;35.50;58.10
4526;DHT22;2275;52.208;8.804;2022-08-03T14:05:44;35.50;58.10
4526;DHT22;2275;52.208;8.804;2022-08-03T14:08:12;35.40;57.90
4526;DHT22;2275;52.208;8.804;2022-08-03T14:10:54;35.30;58.30
4526;DHT22;2275;52.208;8.804;2022-08-03T14:13:24;35.60;58.30
4526;DHT22;2275;52.208;8.804;2022-08-03T14:15:51;35.70;57.70
4526;DHT22;2275;52.208;8.804;2022-08-03T14:18:19;35.80;57.50
4526;DHT22;2275;52.208;8.804;2022-08-03T14:20:46;36.00;56.80
4526;DHT22;2275;52.208;8.804;2022-08-03T14:23:13;36.00;56.80
4526;DHT22;2275;52.208;8.804;2022-08-03T14:25:40;36.30;56.60
4526;DHT22;2275;52.208;8.804;2022-08-03T14:28:07;36.40;56.40
4526;DHT22;2275;52.208;8.804;2022-08-03T14:30:35;36.40;56.30
4526;DHT22;2275;52.208;8.804;2022-08-03T14:33:04;36.30;56.10
4526;DHT22;2275;52.208;8.804;2022-08-03T14:35:31;36.30;56.30
4526;DHT22;2275;52.208;8.804;2022-08-03T14:37:57;36.60;56.50
4526;DHT22;2275;52.208;8.804;2022-08-03T14:40:25;36.80;55.00
4526;DHT22;2275;52.208;8.804;2022-08-03T14:42:52;36.90;55.00
4526;DHT22;2275;52.208;8.804;2022-08-03T14:45:20;37.20;54.20
4526;DHT22;2275;52.208;8.804;2022-08-03T14:47:48;37.20;54.10
4526;DHT22;2275;52.208;8.804;2022-08-03T14:50:15;36.90;54.00
4526;DHT22;2275;52.208;8.804;2022-08-03T14:52:42;36.60;54.70
4526;DHT22;2275;52.208;8.804;2022-08-03T14:55:09;36.60;55.30
4526;DHT22;2275;52.208;8.804;2022-08-03T14:57:36;36.80;54.70
4526;DHT22;2275;52.208;8.804;2022-08-03T15:00:04;36.70;54.50
4526;DHT22;2275;52.208;8.804;2022-08-03T15:02:31;36.60;55.00
4526;DHT22;2275;52.208;8.804;2022-08-03T15:04:58;36.70;55.40
4526;DHT22;2275;52.208;8.804;2022-08-03T15:07:25;36.60;55.30
4526;DHT22;2275;52.208;8.804;2022-08-03T15:09:52;36.60;55.10
4526;DHT22;2275;52.208;8.804;2022-08-03T15:12:19;36.60;54.60
4526;DHT22;2275;52.208;8.804;2022-08-03T15:14:46;36.80;54.50
4526;DHT22;2275;52.208;8.804;2022-08-03T15:17:15;36.60;54.80
4526;DHT22;2275;52.208;8.804;2022-08-03T15:19:42;36.30;55.70
4526;DHT22;2275;52.208;8.804;2022-08-03T15:22:09;36.20;55.80
4526;DHT22;2275;52.208;8.804;2022-08-03T15:24:36;36.50;55.70
4526;DHT22;2275;52.208;8.804;2022-08-03T15:27:04;36.40;56.00
4526;DHT22;2275;52.208;8.804;2022-08-03T15:29:31;36.10;55.90
4526;DHT22;2275;52.208;8.804;2022-08-03T15:31:58;36.10;55.40
4526;DHT22;2275;52.208;8.804;2022-08-03T15:34:25;36.00;55.70
4526;DHT22;2275;52.208;8.804;2022-08-03T15:36:52;36.00;56.00
4526;DHT22;2275;52.208;8.804;2022-08-03T15:39:19;35.90;56.00
4526;DHT22;2275;52.208;8.804;2022-08-03T15:41:47;35.90;56.50
4526;DHT22;2275;52.208;8.804;2022-08-03T15:44:17;35.90;56.50
4526;DHT22;2275;52.208;8.804;2022-08-03T15:46:44;35.90;57.00
4526;DHT22;2275;52.208;8.804;2022-08-03T15:49:11;35.80;55.40
4526;DHT22;2275;52.208;8.804;2022-08-03T15:51:38;35.70;57.40
4526;DHT22;2275;52.208;8.804;2022-08-03T15:54:05;35.90;57.30
4526;DHT22;2275;52.208;8.804;2022-08-03T15:56:32;36.00;56.50
4526;DHT22;2275;52.208;8.804;2022-08-03T15:58:59;35.60;56.60
4526;DHT22;2275;52.208;8.804;2022-08-03T16:01:29;35.60;56.50
4526;DHT22;2275;52.208;8.804;2022-08-03T16:04:09;35.70;56.40
4526;DHT22;2275;52.208;8.804;2022-08-03T16:06:40;35.70;56.50
4526;DHT22;2275;52.208;8.804;2022-08-03T16:09:08;35.80;57.00
4526;DHT22;2275;52.208;8.804;2022-08-03T16:11:36;36.00;56.30
4526;DHT22;2275;52.208;8.804;2022-08-03T16:14:03;36.00;55.70
4526;DHT22;2275;52.208;8.804;2022-08-03T16:16:30;36.00;55.70
4526;DHT22;2275;52.208;8.804;2022-08-03T16:18:57;35.70;56.20
4526;DHT22;2275;52.208;8.804;2022-08-03T16:21:28;35.40;56.90
4526;DHT22;2275;52.208;8.804;2022-08-03T16:23:55;35.40;56.80
4526;DHT22;2275;52.208;8.804;2022-08-03T16:26:22;35.60;56.20
4526;DHT22;2275;52.208;8.804;2022-08-03T16:28:51;35.80;56.50
4526;DHT22;2275;52.208;8.804;2022-08-03T16:31:18;35.90;56.80
4526;DHT22;2275;52.208;8.804;2022-08-03T16:33:45;36.00;56.50
4526;DHT22;2275;52.208;8.804;2022-08-03T16:36:11;35.80;55.90
4526;DHT22;2275;52.208;8.804;2022-08-03T16:38:39;35.80;57.30
4526;DHT22;2275;52.208;8.804;2022-08-03T16:41:07;35.80;55.80
4526;DHT22;2275;52.208;8.804;2022-08-03T16:43:34;36.00;55.70